Portada
METAR-TAF:

METAR-TAF

Aeroports :

Abumusa, Iran

latitud: 25-52-33N, longitud: 055-02-01E, altitud: 7 m

Observació

L'informe es va fer fa 10 hores i 55 minuts, a les 15:00 UTC
Vent 4 kt del Est/Nord-Est
Temperatura 24°C
Humitat 69%
Pressió 1016 hPa
Visibilitat: 5000 m
calitja

METAR: OIBA 221500Z 06004KT 5000 HZ NSC 24/18 Q1016

Hora: 05:25 (01:55 UTC)


TAF: manca

Observacions i pronòstics meteorològics de més de 4000 aeroports (METAR i TAF).

Les estacions disponibles són els punts grocs i vermells al mapa.

Posi el ratolí al punt desitjat per veure el nom de l'estació.

Feu clic per veure les observacions i els pronòstics meteorològics.

Per canviar el mapa: feu clic els botons verds amb una creu de color negre per apropar; al botó verd amb un guió per allunyar la imatge; o en les fletxes verdes per a mapes adjacents.


METAR-TAF: